sensor_id;sensor_type;location;lat;lon;timestamp;P1;durP1;ratioP1;P2;durP2;ratioP2
7440;SDS011;29616;51.950;8.572;2022-09-17T00:01:38;7.78;;;2.00;;
7440;SDS011;29616;51.950;8.572;2022-09-17T00:04:06;7.43;;;1.60;;
7440;SDS011;29616;51.950;8.572;2022-09-17T00:06:34;3.63;;;1.60;;
7440;SDS011;29616;51.950;8.572;2022-09-17T00:09:03;3.38;;;1.25;;
7440;SDS011;29616;51.950;8.572;2022-09-17T00:11:35;9.38;;;2.03;;
7440;SDS011;29616;51.950;8.572;2022-09-17T00:14:06;5.97;;;2.00;;
7440;SDS011;29616;51.950;8.572;2022-09-17T00:16:40;7.85;;;1.92;;
7440;SDS011;29616;51.950;8.572;2022-09-17T00:19:11;7.88;;;2.40;;
7440;SDS011;29616;51.950;8.572;2022-09-17T00:21:43;10.52;;;2.47;;
7440;SDS011;29616;51.950;8.572;2022-09-17T00:24:11;7.05;;;2.08;;
7440;SDS011;29616;51.950;8.572;2022-09-17T00:26:42;8.15;;;2.22;;
7440;SDS011;29616;51.950;8.572;2022-09-17T00:29:11;10.52;;;2.50;;
7440;SDS011;29616;51.950;8.572;2022-09-17T00:31:39;9.70;;;2.40;;
7440;SDS011;29616;51.950;8.572;2022-09-17T00:34:08;7.63;;;2.53;;
7440;SDS011;29616;51.950;8.572;2022-09-17T00:36:37;13.48;;;2.58;;
7440;SDS011;29616;51.950;8.572;2022-09-17T00:39:07;5.57;;;2.13;;
7440;SDS011;29616;51.950;8.572;2022-09-17T00:41:37;13.43;;;2.97;;
7440;SDS011;29616;51.950;8.572;2022-09-17T00:47:15;15.23;;;2.72;;
7440;SDS011;29616;51.950;8.572;2022-09-17T00:49:50;9.07;;;2.38;;
7440;SDS011;29616;51.950;8.572;2022-09-17T00:52:24;11.60;;;2.97;;
7440;SDS011;29616;51.950;8.572;2022-09-17T00:54:59;21.08;;;2.85;;
7440;SDS011;29616;51.950;8.572;2022-09-17T00:57:38;12.38;;;2.88;;
7440;SDS011;29616;51.950;8.572;2022-09-17T01:00:09;16.33;;;3.58;;
7440;SDS011;29616;51.950;8.572;2022-09-17T01:02:40;10.60;;;3.30;;
7440;SDS011;29616;51.950;8.572;2022-09-17T01:05:10;12.05;;;2.67;;
7440;SDS011;29616;51.950;8.572;2022-09-17T01:10:36;9.73;;;2.90;;
7440;SDS011;29616;51.950;8.572;2022-09-17T01:13:29;12.80;;;3.15;;
7440;SDS011;29616;51.950;8.572;2022-09-17T01:16:12;13.13;;;3.28;;
7440;SDS011;29616;51.950;8.572;2022-09-17T01:18:49;15.70;;;2.30;;
7440;SDS011;29616;51.950;8.572;2022-09-17T01:21:32;13.00;;;2.92;;
7440;SDS011;29616;51.950;8.572;2022-09-17T01:27:46;14.88;;;3.35;;
7440;SDS011;29616;51.950;8.572;2022-09-17T01:33:57;9.73;;;2.85;;
7440;SDS011;29616;51.950;8.572;2022-09-17T01:36:38;11.25;;;3.42;;
7440;SDS011;29616;51.950;8.572;2022-09-17T01:39:17;21.42;;;3.13;;
7440;SDS011;29616;51.950;8.572;2022-09-17T01:41:57;18.30;;;2.90;;
7440;SDS011;29616;51.950;8.572;2022-09-17T01:44:37;23.52;;;3.83;;
7440;SDS011;29616;51.950;8.572;2022-09-17T01:47:16;20.65;;;3.20;;
7440;SDS011;29616;51.950;8.572;2022-09-17T01:49:49;10.70;;;2.40;;
7440;SDS011;29616;51.950;8.572;2022-09-17T01:52:23;21.83;;;3.47;;
7440;SDS011;29616;51.950;8.572;2022-09-17T01:54:54;20.05;;;3.25;;
7440;SDS011;29616;51.950;8.572;2022-09-17T01:57:29;16.40;;;2.28;;
7440;SDS011;29616;51.950;8.572;2022-09-17T02:00:03;14.82;;;2.42;;
7440;SDS011;29616;51.950;8.572;2022-09-17T02:02:39;18.05;;;2.95;;
7440;SDS011;29616;51.950;8.572;2022-09-17T02:05:15;17.25;;;2.70;;
7440;SDS011;29616;51.950;8.572;2022-09-17T02:07:49;13.65;;;2.63;;
7440;SDS011;29616;51.950;8.572;2022-09-17T02:10:25;17.23;;;2.90;;
7440;SDS011;29616;51.950;8.572;2022-09-17T02:13:00;16.65;;;2.50;;
7440;SDS011;29616;51.950;8.572;2022-09-17T02:15:35;18.25;;;3.30;;
7440;SDS011;29616;51.950;8.572;2022-09-17T02:18:09;13.65;;;3.47;;
7440;SDS011;29616;51.950;8.572;2022-09-17T02:20:46;20.33;;;2.47;;
7440;SDS011;29616;51.950;8.572;2022-09-17T02:23:20;13.68;;;2.28;;
7440;SDS011;29616;51.950;8.572;2022-09-17T02:25:54;18.08;;;2.53;;
7440;SDS011;29616;51.950;8.572;2022-09-17T02:28:30;12.20;;;2.13;;
7440;SDS011;29616;51.950;8.572;2022-09-17T02:31:06;22.55;;;2.67;;
7440;SDS011;29616;51.950;8.572;2022-09-17T02:33:36;12.32;;;2.22;;
7440;SDS011;29616;51.950;8.572;2022-09-17T02:36:07;18.35;;;3.30;;
7440;SDS011;29616;51.950;8.572;2022-09-17T02:38:36;19.27;;;2.80;;
7440;SDS011;29616;51.950;8.572;2022-09-17T02:41:10;16.42;;;2.78;;
7440;SDS011;29616;51.950;8.572;2022-09-17T02:43:48;12.35;;;2.50;;
7440;SDS011;29616;51.950;8.572;2022-09-17T02:49:57;16.95;;;2.60;;
7440;SDS011;29616;51.950;8.572;2022-09-17T02:52:43;7.72;;;1.10;;
7440;SDS011;29616;51.950;8.572;2022-09-17T02:55:25;12.50;;;2.60;;
7440;SDS011;29616;51.950;8.572;2022-09-17T02:58:03;14.68;;;2.30;;
7440;SDS011;29616;51.950;8.572;2022-09-17T03:03:11;21.60;;;2.33;;
7440;SDS011;29616;51.950;8.572;2022-09-17T03:05:48;15.52;;;1.75;;
7440;SDS011;29616;51.950;8.572;2022-09-17T03:08:17;25.55;;;2.80;;
7440;SDS011;29616;51.950;8.572;2022-09-17T03:10:46;20.15;;;2.20;;
7440;SDS011;29616;51.950;8.572;2022-09-17T03:13:15;13.32;;;2.60;;
7440;SDS011;29616;51.950;8.572;2022-09-17T03:15:45;10.20;;;1.85;;
7440;SDS011;29616;51.950;8.572;2022-09-17T03:18:13;28.10;;;2.95;;
7440;SDS011;29616;51.950;8.572;2022-09-17T03:20:41;13.27;;;1.52;;
7440;SDS011;29616;51.950;8.572;2022-09-17T03:23:11;15.65;;;2.20;;
7440;SDS011;29616;51.950;8.572;2022-09-17T03:25:39;17.48;;;2.65;;
7440;SDS011;29616;51.950;8.572;2022-09-17T03:28:09;18.58;;;2.03;;
7440;SDS011;29616;51.950;8.572;2022-09-17T03:30:37;20.67;;;1.92;;
7440;SDS011;29616;51.950;8.572;2022-09-17T03:33:05;21.23;;;3.15;;
7440;SDS011;29616;51.950;8.572;2022-09-17T03:35:33;16.52;;;2.00;;
7440;SDS011;29616;51.950;8.572;2022-09-17T03:38:01;17.17;;;1.90;;
7440;SDS011;29616;51.950;8.572;2022-09-17T03:40:31;15.63;;;1.95;;
7440;SDS011;29616;51.950;8.572;2022-09-17T03:42:59;12.50;;;2.05;;
7440;SDS011;29616;51.950;8.572;2022-09-17T03:45:27;15.00;;;1.85;;
7440;SDS011;29616;51.950;8.572;2022-09-17T03:47:55;18.58;;;2.28;;
7440;SDS011;29616;51.950;8.572;2022-09-17T03:50:23;12.98;;;1.83;;
7440;SDS011;29616;51.950;8.572;2022-09-17T03:52:52;19.33;;;2.47;;
7440;SDS011;29616;51.950;8.572;2022-09-17T03:55:20;14.30;;;2.08;;
7440;SDS011;29616;51.950;8.572;2022-09-17T03:57:49;19.13;;;2.42;;
7440;SDS011;29616;51.950;8.572;2022-09-17T04:00:17;19.75;;;2.38;;
7440;SDS011;29616;51.950;8.572;2022-09-17T04:02:46;21.88;;;2.10;;
7440;SDS011;29616;51.950;8.572;2022-09-17T04:05:14;10.30;;;2.15;;
7440;SDS011;29616;51.950;8.572;2022-09-17T04:07:43;25.92;;;2.40;;
7440;SDS011;29616;51.950;8.572;2022-09-17T04:10:11;12.98;;;2.08;;
7440;SDS011;29616;51.950;8.572;2022-09-17T04:12:39;18.10;;;2.05;;
7440;SDS011;29616;51.950;8.572;2022-09-17T04:15:09;9.38;;;1.95;;
7440;SDS011;29616;51.950;8.572;2022-09-17T04:17:38;16.60;;;1.95;;
7440;SDS011;29616;51.950;8.572;2022-09-17T04:20:06;18.88;;;2.72;;
7440;SDS011;29616;51.950;8.572;2022-09-17T04:22:35;18.10;;;1.98;;
7440;SDS011;29616;51.950;8.572;2022-09-17T04:25:04;18.45;;;2.15;;
7440;SDS011;29616;51.950;8.572;2022-09-17T04:27:33;17.10;;;2.50;;
7440;SDS011;29616;51.950;8.572;2022-09-17T04:30:01;15.27;;;1.92;;
7440;SDS011;29616;51.950;8.572;2022-09-17T04:32:31;16.13;;;2.10;;
7440;SDS011;29616;51.950;8.572;2022-09-17T04:34:59;18.88;;;2.00;;
7440;SDS011;29616;51.950;8.572;2022-09-17T04:37:27;15.55;;;2.50;;
7440;SDS011;29616;51.950;8.572;2022-09-17T04:39:55;7.95;;;2.53;;
7440;SDS011;29616;51.950;8.572;2022-09-17T04:42:23;22.40;;;2.58;;
7440;SDS011;29616;51.950;8.572;2022-09-17T04:44:51;27.10;;;3.28;;
7440;SDS011;29616;51.950;8.572;2022-09-17T04:47:20;17.90;;;1.77;;
7440;SDS011;29616;51.950;8.572;2022-09-17T04:49:49;22.20;;;2.92;;
7440;SDS011;29616;51.950;8.572;2022-09-17T04:52:18;18.27;;;2.00;;
7440;SDS011;29616;51.950;8.572;2022-09-17T04:54:46;18.25;;;2.10;;
7440;SDS011;29616;51.950;8.572;2022-09-17T04:57:14;14.98;;;2.42;;
7440;SDS011;29616;51.950;8.572;2022-09-17T04:59:42;22.17;;;2.65;;
7440;SDS011;29616;51.950;8.572;2022-09-17T05:02:10;17.60;;;2.22;;
7440;SDS011;29616;51.950;8.572;2022-09-17T05:04:38;14.40;;;1.90;;
7440;SDS011;29616;51.950;8.572;2022-09-17T05:07:07;14.02;;;2.35;;
7440;SDS011;29616;51.950;8.572;2022-09-17T05:09:39;22.40;;;2.50;;
7440;SDS011;29616;51.950;8.572;2022-09-17T05:12:08;16.10;;;2.42;;
7440;SDS011;29616;51.950;8.572;2022-09-17T05:14:36;15.48;;;2.20;;
7440;SDS011;29616;51.950;8.572;2022-09-17T05:17:07;15.27;;;2.60;;
7440;SDS011;29616;51.950;8.572;2022-09-17T05:19:35;27.35;;;3.60;;
7440;SDS011;29616;51.950;8.572;2022-09-17T05:22:03;19.67;;;2.70;;
7440;SDS011;29616;51.950;8.572;2022-09-17T05:24:32;17.98;;;1.95;;
7440;SDS011;29616;51.950;8.572;2022-09-17T05:27:07;20.65;;;2.40;;
7440;SDS011;29616;51.950;8.572;2022-09-17T05:29:35;13.65;;;1.58;;
7440;SDS011;29616;51.950;8.572;2022-09-17T05:32:03;15.10;;;2.30;;
7440;SDS011;29616;51.950;8.572;2022-09-17T05:34:32;15.57;;;2.28;;
7440;SDS011;29616;51.950;8.572;2022-09-17T05:37:00;18.77;;;2.00;;
7440;SDS011;29616;51.950;8.572;2022-09-17T05:39:28;15.48;;;2.38;;
7440;SDS011;29616;51.950;8.572;2022-09-17T05:41:58;20.42;;;2.95;;
7440;SDS011;29616;51.950;8.572;2022-09-17T05:44:26;15.68;;;2.55;;
7440;SDS011;29616;51.950;8.572;2022-09-17T05:46:54;16.58;;;2.00;;
7440;SDS011;29616;51.950;8.572;2022-09-17T05:49:22;10.85;;;2.40;;
7440;SDS011;29616;51.950;8.572;2022-09-17T05:51:50;23.73;;;2.47;;
7440;SDS011;29616;51.950;8.572;2022-09-17T05:54:18;17.35;;;2.08;;
7440;SDS011;29616;51.950;8.572;2022-09-17T05:56:47;13.35;;;2.05;;
7440;SDS011;29616;51.950;8.572;2022-09-17T05:59:16;13.35;;;2.58;;
7440;SDS011;29616;51.950;8.572;2022-09-17T06:01:44;15.75;;;2.55;;
7440;SDS011;29616;51.950;8.572;2022-09-17T06:04:13;14.82;;;3.25;;
7440;SDS011;29616;51.950;8.572;2022-09-17T06:06:43;12.75;;;2.13;;
7440;SDS011;29616;51.950;8.572;2022-09-17T06:09:11;18.38;;;2.03;;
7440;SDS011;29616;51.950;8.572;2022-09-17T06:11:39;21.77;;;2.38;;
7440;SDS011;29616;51.950;8.572;2022-09-17T06:14:07;19.80;;;2.42;;
7440;SDS011;29616;51.950;8.572;2022-09-17T06:16:37;16.98;;;2.15;;
7440;SDS011;29616;51.950;8.572;2022-09-17T06:19:05;16.98;;;3.13;;
7440;SDS011;29616;51.950;8.572;2022-09-17T06:21:33;16.73;;;2.33;;
7440;SDS011;29616;51.950;8.572;2022-09-17T06:24:01;17.10;;;2.58;;
7440;SDS011;29616;51.950;8.572;2022-09-17T06:26:30;20.92;;;2.17;;
7440;SDS011;29616;51.950;8.572;2022-09-17T06:28:58;14.23;;;2.80;;
7440;SDS011;29616;51.950;8.572;2022-09-17T06:31:27;9.20;;;1.67;;
7440;SDS011;29616;51.950;8.572;2022-09-17T06:33:56;16.60;;;2.45;;
7440;SDS011;29616;51.950;8.572;2022-09-17T06:36:27;12.10;;;2.47;;
7440;SDS011;29616;51.950;8.572;2022-09-17T06:38:55;16.20;;;2.35;;
7440;SDS011;29616;51.950;8.572;2022-09-17T06:41:23;20.00;;;2.55;;
7440;SDS011;29616;51.950;8.572;2022-09-17T06:43:54;20.98;;;2.05;;
7440;SDS011;29616;51.950;8.572;2022-09-17T06:46:22;16.50;;;2.28;;
7440;SDS011;29616;51.950;8.572;2022-09-17T06:48:50;14.68;;;2.35;;
7440;SDS011;29616;51.950;8.572;2022-09-17T06:51:20;14.73;;;2.15;;
7440;SDS011;29616;51.950;8.572;2022-09-17T06:53:48;18.30;;;2.00;;
7440;SDS011;29616;51.950;8.572;2022-09-17T06:56:17;13.82;;;1.80;;
7440;SDS011;29616;51.950;8.572;2022-09-17T06:58:45;11.63;;;2.65;;
7440;SDS011;29616;51.950;8.572;2022-09-17T07:01:13;8.80;;;1.70;;
7440;SDS011;29616;51.950;8.572;2022-09-17T07:03:41;10.85;;;2.38;;
7440;SDS011;29616;51.950;8.572;2022-09-17T07:06:10;16.52;;;2.45;;
7440;SDS011;29616;51.950;8.572;2022-09-17T07:08:40;16.23;;;2.17;;
7440;SDS011;29616;51.950;8.572;2022-09-17T07:11:08;12.20;;;2.45;;
7440;SDS011;29616;51.950;8.572;2022-09-17T07:13:37;10.45;;;1.52;;
7440;SDS011;29616;51.950;8.572;2022-09-17T07:16:05;22.30;;;2.30;;
7440;SDS011;29616;51.950;8.572;2022-09-17T07:18:34;9.20;;;1.50;;
7440;SDS011;29616;51.950;8.572;2022-09-17T07:21:03;8.73;;;1.52;;
7440;SDS011;29616;51.950;8.572;2022-09-17T07:23:33;7.28;;;1.65;;
7440;SDS011;29616;51.950;8.572;2022-09-17T07:26:06;17.48;;;2.20;;
7440;SDS011;29616;51.950;8.572;2022-09-17T07:28:38;12.23;;;1.80;;
7440;SDS011;29616;51.950;8.572;2022-09-17T07:31:07;10.65;;;2.00;;
7440;SDS011;29616;51.950;8.572;2022-09-17T07:33:41;8.00;;;2.03;;
7440;SDS011;29616;51.950;8.572;2022-09-17T07:36:11;14.00;;;2.08;;
7440;SDS011;29616;51.950;8.572;2022-09-17T07:38:43;16.17;;;1.83;;
7440;SDS011;29616;51.950;8.572;2022-09-17T07:41:13;8.55;;;1.60;;
7440;SDS011;29616;51.950;8.572;2022-09-17T07:43:43;15.30;;;2.05;;
7440;SDS011;29616;51.950;8.572;2022-09-17T07:46:12;12.60;;;1.70;;
7440;SDS011;29616;51.950;8.572;2022-09-17T07:48:43;10.95;;;2.15;;
7440;SDS011;29616;51.950;8.572;2022-09-17T07:51:13;13.77;;;2.53;;
7440;SDS011;29616;51.950;8.572;2022-09-17T07:53:43;13.32;;;2.25;;
7440;SDS011;29616;51.950;8.572;2022-09-17T07:56:13;9.15;;;1.67;;
7440;SDS011;29616;51.950;8.572;2022-09-17T07:58:41;7.45;;;1.60;;
7440;SDS011;29616;51.950;8.572;2022-09-17T08:01:10;9.27;;;2.05;;
7440;SDS011;29616;51.950;8.572;2022-09-17T08:03:40;7.63;;;1.55;;
7440;SDS011;29616;51.950;8.572;2022-09-17T08:06:11;7.05;;;2.25;;
7440;SDS011;29616;51.950;8.572;2022-09-17T08:08:41;6.70;;;1.67;;
7440;SDS011;29616;51.950;8.572;2022-09-17T08:11:10;6.55;;;2.28;;
7440;SDS011;29616;51.950;8.572;2022-09-17T08:14:01;5.97;;;1.25;;
7440;SDS011;29616;51.950;8.572;2022-09-17T08:16:29;7.47;;;1.52;;
7440;SDS011;29616;51.950;8.572;2022-09-17T08:18:58;12.15;;;2.03;;
7440;SDS011;29616;51.950;8.572;2022-09-17T08:21:26;11.52;;;1.33;;
7440;SDS011;29616;51.950;8.572;2022-09-17T08:23:54;6.35;;;1.10;;
7440;SDS011;29616;51.950;8.572;2022-09-17T08:26:24;7.28;;;1.50;;
7440;SDS011;29616;51.950;8.572;2022-09-17T08:28:53;4.15;;;1.10;;
7440;SDS011;29616;51.950;8.572;2022-09-17T08:31:22;10.85;;;2.17;;
7440;SDS011;29616;51.950;8.572;2022-09-17T08:33:53;4.43;;;1.50;;
7440;SDS011;29616;51.950;8.572;2022-09-17T08:36:22;10.18;;;2.47;;
7440;SDS011;29616;51.950;8.572;2022-09-17T08:38:52;6.72;;;1.17;;
7440;SDS011;29616;51.950;8.572;2022-09-17T08:41:24;4.57;;;1.63;;
7440;SDS011;29616;51.950;8.572;2022-09-17T08:44:06;12.70;;;1.95;;
7440;SDS011;29616;51.950;8.572;2022-09-17T08:46:47;9.75;;;1.35;;
7440;SDS011;29616;51.950;8.572;2022-09-17T08:49:27;8.93;;;1.30;;
7440;SDS011;29616;51.950;8.572;2022-09-17T08:52:08;5.80;;;1.02;;
7440;SDS011;29616;51.950;8.572;2022-09-17T08:55:06;3.75;;;1.25;;
7440;SDS011;29616;51.950;8.572;2022-09-17T08:58:04;6.47;;;1.20;;
7440;SDS011;29616;51.950;8.572;2022-09-17T09:00:56;6.80;;;1.40;;
7440;SDS011;29616;51.950;8.572;2022-09-17T09:03:41;7.00;;;1.88;;
7440;SDS011;29616;51.950;8.572;2022-09-17T09:06:26;6.63;;;1.80;;
7440;SDS011;29616;51.950;8.572;2022-09-17T09:09:00;6.35;;;1.33;;
7440;SDS011;29616;51.950;8.572;2022-09-17T09:11:33;6.63;;;1.35;;
7440;SDS011;29616;51.950;8.572;2022-09-17T09:14:05;5.85;;;1.42;;
7440;SDS011;29616;51.950;8.572;2022-09-17T09:16:41;6.57;;;1.30;;
7440;SDS011;29616;51.950;8.572;2022-09-17T09:19:15;5.28;;;1.23;;
7440;SDS011;29616;51.950;8.572;2022-09-17T09:21:52;7.55;;;1.30;;
7440;SDS011;29616;51.950;8.572;2022-09-17T09:27:13;5.65;;;1.60;;
7440;SDS011;29616;51.950;8.572;2022-09-17T09:29:49;5.80;;;1.23;;
7440;SDS011;29616;51.950;8.572;2022-09-17T09:32:33;7.93;;;1.13;;
7440;SDS011;29616;51.950;8.572;2022-09-17T09:35:18;7.93;;;2.25;;
7440;SDS011;29616;51.950;8.572;2022-09-17T09:37:52;3.85;;;1.20;;
7440;SDS011;29616;51.950;8.572;2022-09-17T09:40:29;3.35;;;1.20;;
7440;SDS011;29616;51.950;8.572;2022-09-17T09:43:09;4.70;;;1.08;;
7440;SDS011;29616;51.950;8.572;2022-09-17T09:49:18;4.93;;;1.10;;
7440;SDS011;29616;51.950;8.572;2022-09-17T09:52:04;4.57;;;1.30;;
7440;SDS011;29616;51.950;8.572;2022-09-17T09:54:48;4.85;;;1.10;;
7440;SDS011;29616;51.950;8.572;2022-09-17T09:57:33;3.50;;;1.27;;
7440;SDS011;29616;51.950;8.572;2022-09-17T10:00:26;4.28;;;1.20;;
7440;SDS011;29616;51.950;8.572;2022-09-17T10:03:00;4.13;;;0.98;;
7440;SDS011;29616;51.950;8.572;2022-09-17T10:05:39;3.80;;;1.00;;
7440;SDS011;29616;51.950;8.572;2022-09-17T10:08:18;4.68;;;0.80;;
7440;SDS011;29616;51.950;8.572;2022-09-17T10:10:54;3.05;;;1.27;;
7440;SDS011;29616;51.950;8.572;2022-09-17T10:13:25;1.65;;;0.82;;
7440;SDS011;29616;51.950;8.572;2022-09-17T10:15:56;2.45;;;0.88;;
7440;SDS011;29616;51.950;8.572;2022-09-17T10:18:45;4.60;;;1.00;;
7440;SDS011;29616;51.950;8.572;2022-09-17T10:21:18;5.70;;;1.30;;
7440;SDS011;29616;51.950;8.572;2022-09-17T10:23:50;4.15;;;0.93;;
7440;SDS011;29616;51.950;8.572;2022-09-17T10:26:20;5.18;;;0.93;;
7440;SDS011;29616;51.950;8.572;2022-09-17T10:28:52;4.63;;;1.20;;
7440;SDS011;29616;51.950;8.572;2022-09-17T10:31:22;5.57;;;1.83;;
7440;SDS011;29616;51.950;8.572;2022-09-17T10:33:54;4.53;;;1.05;;
7440;SDS011;29616;51.950;8.572;2022-09-17T10:36:38;3.75;;;1.05;;
7440;SDS011;29616;51.950;8.572;2022-09-17T10:39:31;4.07;;;1.00;;
7440;SDS011;29616;51.950;8.572;2022-09-17T10:42:02;4.55;;;1.17;;
7440;SDS011;29616;51.950;8.572;2022-09-17T10:44:32;5.57;;;0.82;;
7440;SDS011;29616;51.950;8.572;2022-09-17T10:47:06;4.35;;;1.00;;
7440;SDS011;29616;51.950;8.572;2022-09-17T10:49:41;5.22;;;1.00;;
7440;SDS011;29616;51.950;8.572;2022-09-17T10:52:19;2.83;;;0.80;;
7440;SDS011;29616;51.950;8.572;2022-09-17T10:58:03;3.53;;;1.10;;
7440;SDS011;29616;51.950;8.572;2022-09-17T11:00:47;7.07;;;1.58;;
7440;SDS011;29616;51.950;8.572;2022-09-17T11:03:38;5.15;;;1.88;;
7440;SDS011;29616;51.950;8.572;2022-09-17T11:09:47;4.88;;;0.95;;
7440;SDS011;29616;51.950;8.572;2022-09-17T11:12:27;3.33;;;0.60;;
7440;SDS011;29616;51.950;8.572;2022-09-17T11:15:11;4.40;;;1.00;;
7440;SDS011;29616;51.950;8.572;2022-09-17T11:18:01;2.13;;;1.05;;
7440;SDS011;29616;51.950;8.572;2022-09-17T11:20:55;4.00;;;0.77;;
7440;SDS011;29616;51.950;8.572;2022-09-17T11:23:45;3.90;;;1.15;;
7440;SDS011;29616;51.950;8.572;2022-09-17T11:26:45;2.05;;;0.85;;
7440;SDS011;29616;51.950;8.572;2022-09-17T11:29:36;2.55;;;0.80;;
7440;SDS011;29616;51.950;8.572;2022-09-17T11:32:24;3.38;;;0.80;;
7440;SDS011;29616;51.950;8.572;2022-09-17T11:35:10;2.92;;;0.90;;
7440;SDS011;29616;51.950;8.572;2022-09-17T11:37:45;2.38;;;0.85;;
7440;SDS011;29616;51.950;8.572;2022-09-17T11:40:28;2.22;;;0.80;;
7440;SDS011;29616;51.950;8.572;2022-09-17T11:43:06;4.95;;;0.98;;
7440;SDS011;29616;51.950;8.572;2022-09-17T11:45:47;2.65;;;1.10;;
7440;SDS011;29616;51.950;8.572;2022-09-17T11:48:26;4.07;;;1.00;;
7440;SDS011;29616;51.950;8.572;2022-09-17T11:51:11;3.00;;;0.90;;
7440;SDS011;29616;51.950;8.572;2022-09-17T11:53:56;1.95;;;0.70;;
7440;SDS011;29616;51.950;8.572;2022-09-17T11:56:35;2.17;;;0.80;;
7440;SDS011;29616;51.950;8.572;2022-09-17T11:59:11;3.65;;;1.00;;
7440;SDS011;29616;51.950;8.572;2022-09-17T12:01:48;2.15;;;0.73;;
7440;SDS011;29616;51.950;8.572;2022-09-17T12:04:28;4.80;;;0.88;;
7440;SDS011;29616;51.950;8.572;2022-09-17T12:07:07;3.50;;;0.80;;
7440;SDS011;29616;51.950;8.572;2022-09-17T12:09:49;6.60;;;1.23;;
7440;SDS011;29616;51.950;8.572;2022-09-17T12:12:24;1.95;;;0.73;;
7440;SDS011;29616;51.950;8.572;2022-09-17T12:15:16;3.85;;;0.75;;
7440;SDS011;29616;51.950;8.572;2022-09-17T12:17:51;2.95;;;0.90;;
7440;SDS011;29616;51.950;8.572;2022-09-17T12:20:44;4.30;;;0.98;;
7440;SDS011;29616;51.950;8.572;2022-09-17T12:23:17;3.92;;;0.80;;
7440;SDS011;29616;51.950;8.572;2022-09-17T12:25:59;2.88;;;0.82;;
7440;SDS011;29616;51.950;8.572;2022-09-17T12:28:45;3.05;;;0.88;;
7440;SDS011;29616;51.950;8.572;2022-09-17T12:31:25;3.55;;;0.90;;
7440;SDS011;29616;51.950;8.572;2022-09-17T12:34:04;2.22;;;0.80;;
7440;SDS011;29616;51.950;8.572;2022-09-17T12:36:54;2.00;;;0.70;;
7440;SDS011;29616;51.950;8.572;2022-09-17T12:42:39;5.05;;;0.90;;
7440;SDS011;29616;51.950;8.572;2022-09-17T12:45:32;3.40;;;0.68;;
7440;SDS011;29616;51.950;8.572;2022-09-17T12:48:22;7.15;;;0.90;;
7440;SDS011;29616;51.950;8.572;2022-09-17T12:51:09;1.55;;;0.73;;
7440;SDS011;29616;51.950;8.572;2022-09-17T12:53:56;4.80;;;0.70;;
7440;SDS011;29616;51.950;8.572;2022-09-17T12:56:41;1.75;;;0.60;;
7440;SDS011;29616;51.950;8.572;2022-09-17T12:59:20;5.25;;;1.27;;
7440;SDS011;29616;51.950;8.572;2022-09-17T13:01:56;2.78;;;0.68;;
7440;SDS011;29616;51.950;8.572;2022-09-17T13:04:37;1.92;;;0.65;;
7440;SDS011;29616;51.950;8.572;2022-09-17T13:10:52;5.03;;;0.93;;
7440;SDS011;29616;51.950;8.572;2022-09-17T13:13:55;3.28;;;1.40;;
7440;SDS011;29616;51.950;8.572;2022-09-17T13:16:33;1.45;;;0.65;;
7440;SDS011;29616;51.950;8.572;2022-09-17T13:19:11;3.95;;;1.17;;
7440;SDS011;29616;51.950;8.572;2022-09-17T13:21:53;1.65;;;0.70;;
7440;SDS011;29616;51.950;8.572;2022-09-17T13:24:28;2.30;;;0.75;;
7440;SDS011;29616;51.950;8.572;2022-09-17T13:26:59;3.70;;;0.85;;
7440;SDS011;29616;51.950;8.572;2022-09-17T13:32:42;3.15;;;0.80;;
7440;SDS011;29616;51.950;8.572;2022-09-17T13:38:17;2.67;;;0.80;;
7440;SDS011;29616;51.950;8.572;2022-09-17T13:40:49;3.50;;;1.00;;
7440;SDS011;29616;51.950;8.572;2022-09-17T13:43:20;5.35;;;1.10;;
7440;SDS011;29616;51.950;8.572;2022-09-17T13:46:06;2.10;;;0.80;;
7440;SDS011;29616;51.950;8.572;2022-09-17T13:48:46;3.38;;;1.02;;
7440;SDS011;29616;51.950;8.572;2022-09-17T13:51:46;1.40;;;0.68;;
7440;SDS011;29616;51.950;8.572;2022-09-17T13:54:19;2.35;;;0.73;;
7440;SDS011;29616;51.950;8.572;2022-09-17T13:59:54;2.58;;;0.70;;
7440;SDS011;29616;51.950;8.572;2022-09-17T14:02:29;2.42;;;0.70;;
7440;SDS011;29616;51.950;8.572;2022-09-17T14:05:22;0.60;;;0.40;;
7440;SDS011;29616;51.950;8.572;2022-09-17T14:08:22;4.25;;;0.60;;
7440;SDS011;29616;51.950;8.572;2022-09-17T14:10:57;2.05;;;0.60;;
7440;SDS011;29616;51.950;8.572;2022-09-17T14:13:49;2.28;;;0.85;;
7440;SDS011;29616;51.950;8.572;2022-09-17T14:16:32;4.38;;;1.00;;
7440;SDS011;29616;51.950;8.572;2022-09-17T14:19:23;5.07;;;0.88;;
7440;SDS011;29616;51.950;8.572;2022-09-17T14:22:11;1.83;;;0.52;;
7440;SDS011;29616;51.950;8.572;2022-09-17T14:24:46;2.55;;;0.80;;
7440;SDS011;29616;51.950;8.572;2022-09-17T14:27:26;4.90;;;1.13;;
7440;SDS011;29616;51.950;8.572;2022-09-17T14:30:13;2.45;;;0.93;;
7440;SDS011;29616;51.950;8.572;2022-09-17T14:32:51;3.72;;;1.02;;
7440;SDS011;29616;51.950;8.572;2022-09-17T14:35:30;2.63;;;0.82;;
7440;SDS011;29616;51.950;8.572;2022-09-17T14:38:06;2.25;;;0.68;;
7440;SDS011;29616;51.950;8.572;2022-09-17T14:40:43;4.78;;;1.02;;
7440;SDS011;29616;51.950;8.572;2022-09-17T14:43:15;2.25;;;0.80;;
7440;SDS011;29616;51.950;8.572;2022-09-17T14:45:48;4.65;;;1.30;;
7440;SDS011;29616;51.950;8.572;2022-09-17T14:48:25;3.45;;;1.10;;
7440;SDS011;29616;51.950;8.572;2022-09-17T14:54:07;4.65;;;0.95;;
7440;SDS011;29616;51.950;8.572;2022-09-17T14:56:49;3.53;;;1.30;;
7440;SDS011;29616;51.950;8.572;2022-09-17T14:59:41;3.15;;;1.13;;
7440;SDS011;29616;51.950;8.572;2022-09-17T15:02:25;3.90;;;1.02;;
7440;SDS011;29616;51.950;8.572;2022-09-17T15:04:58;4.68;;;1.23;;
7440;SDS011;29616;51.950;8.572;2022-09-17T15:07:27;5.88;;;1.27;;
7440;SDS011;29616;51.950;8.572;2022-09-17T15:10:05;4.32;;;1.00;;
7440;SDS011;29616;51.950;8.572;2022-09-17T15:12:36;2.58;;;1.00;;
7440;SDS011;29616;51.950;8.572;2022-09-17T15:15:09;4.30;;;1.00;;
7440;SDS011;29616;51.950;8.572;2022-09-17T15:17:46;5.10;;;1.10;;
7440;SDS011;29616;51.950;8.572;2022-09-17T15:20:17;5.93;;;1.30;;
7440;SDS011;29616;51.950;8.572;2022-09-17T15:22:50;3.13;;;1.42;;
7440;SDS011;29616;51.950;8.572;2022-09-17T15:25:34;3.03;;;1.20;;
7440;SDS011;29616;51.950;8.572;2022-09-17T15:28:08;4.28;;;1.00;;
7440;SDS011;29616;51.950;8.572;2022-09-17T15:30:48;6.45;;;1.30;;
7440;SDS011;29616;51.950;8.572;2022-09-17T15:33:17;4.72;;;1.00;;
7440;SDS011;29616;51.950;8.572;2022-09-17T15:35:57;2.85;;;0.80;;
7440;SDS011;29616;51.950;8.572;2022-09-17T15:38:27;4.82;;;1.00;;
7440;SDS011;29616;51.950;8.572;2022-09-17T15:41:10;2.53;;;1.10;;
7440;SDS011;29616;51.950;8.572;2022-09-17T15:43:52;4.13;;;1.08;;
7440;SDS011;29616;51.950;8.572;2022-09-17T15:46:40;6.10;;;1.38;;
7440;SDS011;29616;51.950;8.572;2022-09-17T15:49:25;3.95;;;1.17;;
7440;SDS011;29616;51.950;8.572;2022-09-17T15:54:56;1.40;;;0.90;;
7440;SDS011;29616;51.950;8.572;2022-09-17T15:57:24;7.47;;;1.15;;
7440;SDS011;29616;51.950;8.572;2022-09-17T15:59:55;5.78;;;1.23;;
7440;SDS011;29616;51.950;8.572;2022-09-17T16:02:32;4.60;;;1.00;;
7440;SDS011;29616;51.950;8.572;2022-09-17T16:08:22;3.85;;;0.90;;
7440;SDS011;29616;51.950;8.572;2022-09-17T16:10:59;4.60;;;0.75;;
7440;SDS011;29616;51.950;8.572;2022-09-17T16:13:27;4.55;;;0.60;;
7440;SDS011;29616;51.950;8.572;2022-09-17T16:15:57;4.40;;;0.85;;
7440;SDS011;29616;51.950;8.572;2022-09-17T16:18:25;4.30;;;1.10;;
7440;SDS011;29616;51.950;8.572;2022-09-17T16:20:53;5.85;;;1.48;;
7440;SDS011;29616;51.950;8.572;2022-09-17T16:23:21;3.03;;;1.20;;
7440;SDS011;29616;51.950;8.572;2022-09-17T16:25:50;4.72;;;1.05;;
7440;SDS011;29616;51.950;8.572;2022-09-17T16:28:18;6.55;;;1.10;;
7440;SDS011;29616;51.950;8.572;2022-09-17T16:30:47;2.03;;;1.10;;
7440;SDS011;29616;51.950;8.572;2022-09-17T16:33:17;4.78;;;0.93;;
7440;SDS011;29616;51.950;8.572;2022-09-17T16:35:46;3.97;;;0.80;;
7440;SDS011;29616;51.950;8.572;2022-09-17T16:38:14;4.53;;;0.90;;